General Aviation Weather

Text Reports

Enter one or more of the following location identifiers separated by a space:

Zip Code, Four-Character ICAO or Three-Character IATA airport codes.

METAR - Aviation Routine Weather Report
KLIC - Limon, Colorado
Updated at 2:55 PM GMT on December 20, 2014 (7:55 AM MST):
METAR KLIC 201455Z AUTO 00000KT 10SM CLR M07/M09 A3002 RMK AO2 SLP207 T10671094 52004
TAF - Terminal Area Forecast
KLIC - Limon, Colorado
Updated at 2:55 PM GMT on December 20, 2014 (7:55 AM MST):
No TAF is currently available for this location.
Decoded:
No decoded TAF is available.
PIREP - Pilot Weather Report
KLIC - Limon, Colorado
Updated at 2:55 PM GMT on December 20, 2014 (7:55 AM MST):
No PIREP is currently available for this location.
AIRMET - Airmens Meteorological Information
KLIC - Limon, Colorado
Updated at 2:55 PM GMT on December 20, 2014 (7:55 AM MST):
No AIRMET is currently available for this location.
SIGMET - Significant Meteorological Information
KLIC - Limon, Colorado
Updated at 2:55 PM GMT on December 20, 2014 (7:55 AM MST):
No SIGMET is currently available for this location.
NOTAM - Notice to Airmen
KLIC - Limon, Colorado
Updated at 2:55 PM GMT on December 20, 2014 (7:55 AM MST):
No NOTAM is currently available for this location.
Forecast Area
KLIC - Limon, Colorado
Updated at 2:55 PM GMT on December 20, 2014 (7:55 AM MST):
No NOTAM is currently available for this location.
Aviation Weather Maps